createdAt,value
2023-03-10T00:00:45.451Z,70.54167644394975
2023-03-10T00:06:47.540Z,69.95062214637244
2023-03-10T00:09:45.116Z,70.59713336697799
2023-03-10T00:12:40.730Z,70.56917605982899
2023-03-10T00:15:37.261Z,71.028269856182
2023-03-10T00:18:32.809Z,70.38356289857842
2023-03-10T00:21:30.389Z,70.5800393088545
2023-03-10T00:24:25.906Z,70.81826235955724
2023-03-10T00:27:21.502Z,70.81701042944529
2023-03-10T00:30:17.026Z,70.86063585383593
2023-03-10T00:33:12.591Z,70.90127204487969
2023-03-10T00:36:10.226Z,70.15178353620888
2023-03-10T00:39:05.710Z,70.13323137153793
2023-03-10T00:42:03.266Z,71.01500284499505
2023-03-10T00:44:59.809Z,72.1774610005059
2023-03-10T00:47:55.379Z,73.76400766879081
2023-03-10T00:50:50.928Z,73.72220927701788
2023-03-10T00:53:46.485Z,71.75994701255148
2023-03-10T00:56:44.042Z,71.22060575709789
2023-03-10T00:59:49.982Z,72.36146663555965
2023-03-10T01:02:40.213Z,72.6192369520042
2023-03-10T01:05:35.763Z,71.70348449979863
2023-03-10T01:08:31.268Z,72.85237452449337
2023-03-10T01:14:33.437Z,72.79737502746431
2023-03-10T01:17:30.949Z,73.63214638410054
2023-03-10T01:20:27.512Z,72.45528155207798
2023-03-10T01:23:24.069Z,72.12116468064887
2023-03-10T01:26:21.618Z,72.69289397467467
2023-03-10T01:29:18.178Z,72.90196182388489
2023-03-10T01:32:13.757Z,70.98374776750128
2023-03-10T01:35:10.316Z,70.14880890773694
2023-03-10T01:38:07.802Z,69.85287574477657
2023-03-10T01:41:05.393Z,70.17056666593453
2023-03-10T01:44:04.983Z,70.41169571812496
2023-03-10T01:47:11.522Z,72.40549409490755
2023-03-10T01:50:11.061Z,72.50411461261041
2023-03-10T01:53:08.652Z,72.12846856528567
2023-03-10T01:56:07.177Z,73.84511755228328
2023-03-10T01:59:05.725Z,73.34659951872459
2023-03-10T02:02:02.378Z,72.40325609781131
2023-03-10T02:05:03.840Z,70.4590365842208
2023-03-10T02:08:00.349Z,69.9440835546789
2023-03-10T02:10:56.949Z,70.19123892316243
2023-03-10T02:13:53.484Z,69.75308377097174
2023-03-10T02:16:50.064Z,69.06341933381495
2023-03-10T02:20:00.522Z,68.87667912370371
2023-03-10T02:22:56.174Z,68.28738542516643
2023-03-10T02:26:00.717Z,68.28673774489454
2023-03-10T02:28:57.274Z,70.53814646322212
2023-03-10T02:31:55.060Z,69.57549323498588
2023-03-10T02:34:50.364Z,69.15436064865271
2023-03-10T02:37:51.862Z,68.99788060589964
2023-03-10T02:41:01.401Z,70.0982318370153
2023-03-10T02:44:00.017Z,70.22491554048612
2023-03-10T02:46:55.520Z,70.14319700006381
2023-03-10T02:49:53.073Z,69.64803167280714
2023-03-10T02:52:57.596Z,70.1575219225021
2023-03-10T02:55:54.216Z,71.15864734633669
2023-03-10T02:58:50.706Z,72.13472976212026
2023-03-10T03:01:47.280Z,73.07959533633047
2023-03-10T03:04:42.877Z,73.19701590340324
2023-03-10T03:07:38.457Z,72.72794462564421
2023-03-10T03:10:34.977Z,74.21806417668544
2023-03-10T03:13:30.547Z,75.08690549731753
2023-03-10T03:16:26.196Z,74.4660499745215
2023-03-10T03:19:21.668Z,73.60023975666694
2023-03-10T03:22:21.221Z,75.41715198195097
2023-03-10T03:25:18.847Z,75.44576955931892
2023-03-10T03:28:15.296Z,74.72459691324926
2023-03-10T03:31:14.899Z,72.91980402958765
2023-03-10T03:34:10.434Z,71.72069317563034
2023-03-10T03:37:07.045Z,72.12987351291085
2023-03-10T03:40:12.514Z,74.18530147056832
2023-03-10T03:43:08.079Z,74.36651715333235
2023-03-10T03:46:05.917Z,73.91556917312514
2023-03-10T03:49:01.233Z,75.09405655150488
2023-03-10T03:51:56.761Z,73.52284247295908
2023-03-10T03:54:52.345Z,72.4541154513777
2023-03-10T03:57:48.921Z,72.32161279535971
2023-03-10T04:00:48.220Z,70.7227392314039
2023-03-10T04:03:45.167Z,71.78827561912597
2023-03-10T04:06:40.560Z,73.53879619866453
2023-03-10T04:09:39.131Z,73.9802111218542
2023-03-10T04:12:34.705Z,72.81515169097928
2023-03-10T04:15:30.357Z,73.10352905233388
2023-03-10T04:18:26.828Z,71.54871358483173
2023-03-10T04:21:22.392Z,72.12233429337581
2023-03-10T04:24:17.930Z,74.31255276888842
2023-03-10T04:27:13.454Z,72.46428627788215
2023-03-10T04:30:11.014Z,72.06409276833607
2023-03-10T04:33:07.612Z,73.8336094135707
2023-03-10T04:36:04.247Z,72.99403691203807
2023-03-10T04:38:59.730Z,72.24372747156421
2023-03-10T04:41:56.302Z,73.04698042500875
2023-03-10T04:44:51.807Z,73.61505270883222
2023-03-10T04:47:47.420Z,73.34785885239167
2023-03-10T04:50:43.952Z,73.30079903682231
2023-03-10T04:53:40.544Z,72.68288538525759
2023-03-10T04:56:38.096Z,72.68123835944861
2023-03-10T04:59:33.642Z,73.90214300176648
2023-03-10T05:02:29.194Z,76.1323426396397
2023-03-10T05:05:24.798Z,75.57584846354499
2023-03-10T05:08:20.346Z,74.39340191511232
2023-03-10T05:11:16.851Z,76.57852421774116
2023-03-10T05:14:12.439Z,77.0301263699576
2023-03-10T05:17:08.017Z,75.98638335406284
2023-03-10T05:20:07.564Z,73.79009793784937
2023-03-10T05:23:03.130Z,72.62938404475781
2023-03-10T05:25:58.758Z,72.86643253230851
2023-03-10T05:28:56.254Z,73.55927662327733
2023-03-10T05:31:57.783Z,73.41989121625636
2023-03-10T05:34:56.380Z,73.37243446844045
2023-03-10T05:37:52.914Z,72.29231460437207
2023-03-10T05:40:51.475Z,71.74855580171936
2023-03-10T05:43:46.999Z,73.05004688909858
2023-03-10T05:46:43.620Z,74.22924183313887
2023-03-10T05:49:39.167Z,74.86958659074088
2023-03-10T05:52:36.704Z,75.32451851812372
2023-03-10T05:55:32.251Z,73.94507261887709
2023-03-10T05:58:27.767Z,73.58391787908722
2023-03-10T06:01:24.340Z,74.57181673695537
2023-03-10T06:04:20.040Z,74.25587161884694
2023-03-10T06:07:15.508Z,75.69454143329948
2023-03-10T06:10:11.074Z,75.90405325947171
2023-03-10T06:13:06.587Z,75.77829009009476
2023-03-10T06:16:04.265Z,76.5923876332244
2023-03-10T06:19:00.726Z,76.11000379519298
2023-03-10T06:21:57.294Z,76.0840059381695
2023-03-10T06:24:52.866Z,76.31623453564895
2023-03-10T06:27:48.397Z,77.04200701656684
2023-03-10T06:30:43.976Z,76.73431275660099
2023-03-10T06:33:39.569Z,76.73933904217293
2023-03-10T06:36:37.088Z,76.10244009642908
2023-03-10T06:39:32.647Z,75.50854723451926
2023-03-10T06:42:28.228Z,75.24144569600428
2023-03-10T06:45:25.729Z,74.79656018018436
2023-03-10T06:48:21.296Z,74.92003446277734
2023-03-10T06:51:20.886Z,75.19998605977976
2023-03-10T06:54:16.434Z,75.2203802114459
2023-03-10T06:57:12.008Z,74.65490489029192
2023-03-10T07:00:11.590Z,74.06982130255395
2023-03-10T07:03:07.093Z,74.27268396572798
2023-03-10T07:06:02.637Z,72.96484084216488
2023-03-10T07:08:58.286Z,73.9978053258877
2023-03-10T07:11:54.752Z,73.84027370321536
2023-03-10T07:14:51.332Z,73.30459897395372
2023-03-10T07:17:46.875Z,72.27021612053672
2023-03-10T07:20:44.466Z,72.48681653635629
2023-03-10T07:23:40.021Z,73.15090454202094
2023-03-10T07:26:39.576Z,71.75223768830101
2023-03-10T07:29:36.155Z,71.83794791925504
2023-03-10T07:32:31.720Z,71.49638980814414
2023-03-10T07:35:27.264Z,70.0608065567665
2023-03-10T07:38:22.868Z,70.38153518189687
2023-03-10T07:41:20.378Z,70.01211068893555
2023-03-10T07:44:15.939Z,70.75487164184638
2023-03-10T07:47:11.526Z,71.52526130852598
2023-03-10T07:50:08.040Z,71.48800995092923
2023-03-10T07:53:03.628Z,72.45295339943216
2023-03-10T07:56:00.181Z,72.0450848840677
2023-03-10T07:58:58.751Z,72.12501556742336
2023-03-10T08:01:54.287Z,71.38512731444884
2023-03-10T08:04:49.892Z,71.21299737465465
2023-03-10T08:07:45.388Z,70.45656355737667
2023-03-10T08:10:42.517Z,70.86376649123767
2023-03-10T08:13:39.097Z,70.52730239432385
2023-03-10T08:16:35.580Z,70.66808567123185
2023-03-10T08:19:31.674Z,70.85195392881798
2023-03-10T08:22:28.208Z,70.51929970010728
2023-03-10T08:25:23.802Z,71.07256621339674
2023-03-10T08:28:19.360Z,71.78503836235414
2023-03-10T08:31:15.885Z,71.15219681946115
2023-03-10T08:34:12.464Z,71.16673288535988
2023-03-10T08:37:07.995Z,71.35179710338576
2023-03-10T08:40:07.596Z,71.2547210912792
2023-03-10T08:43:03.107Z,72.16549767200003
2023-03-10T08:45:58.639Z,71.85719112965643
2023-03-10T08:48:54.270Z,72.29245084492022
2023-03-10T08:51:49.822Z,71.47031636098501
2023-03-10T08:54:47.333Z,71.68398137397408
2023-03-10T08:57:42.898Z,72.08226883689717
2023-03-10T09:00:42.491Z,71.50360190415203
2023-03-10T09:03:39.065Z,71.83109771961372
2023-03-10T09:06:36.605Z,71.24254395519475
2023-03-10T09:09:32.193Z,71.06484453157682
2023-03-10T09:12:34.086Z,70.56371695212475
2023-03-10T09:15:29.250Z,70.94270069144912
2023-03-10T09:18:26.816Z,70.0571946260157
2023-03-10T09:21:22.402Z,70.22320330885982
2023-03-10T09:24:19.940Z,69.73963264806144
2023-03-10T09:27:15.490Z,70.23493157265433
2023-03-10T09:30:12.054Z,69.80882894878192
2023-03-10T09:33:12.591Z,70.23295127108254
2023-03-10T09:36:08.358Z,70.90352100943764
2023-03-10T09:39:04.769Z,71.4176832719349
2023-03-10T09:42:25.530Z,70.76691754451353
2023-03-10T09:45:30.863Z,70.6525073365184
2023-03-10T09:48:39.283Z,70.69113669120905
2023-03-10T09:51:42.817Z,71.48078287983687
2023-03-10T09:54:51.335Z,70.82414466988219
2023-03-10T09:57:49.928Z,70.53120512660583
2023-03-10T10:00:51.463Z,70.43596113037017
2023-03-10T10:03:53.330Z,70.41153193120891
2023-03-10T10:06:52.568Z,69.85342469255366
2023-03-10T10:09:56.078Z,69.10393707675973
2023-03-10T10:12:58.646Z,68.7711620256369
2023-03-10T10:16:18.218Z,68.43917767485948
2023-03-10T10:19:05.802Z,68.11714282532935
2023-03-10T10:22:10.292Z,67.89196591489299
2023-03-10T10:25:13.832Z,68.3530365449561
2023-03-10T10:28:18.330Z,68.33526773968214
2023-03-10T10:31:17.036Z,66.9480982036789
2023-03-10T10:34:19.794Z,67.14387810305081
2023-03-10T10:37:24.998Z,66.6959670378026
2023-03-10T10:40:23.556Z,65.75688496807217
2023-03-10T10:43:24.125Z,64.9760467457295
2023-03-10T10:46:27.711Z,64.11384343940132
2023-03-10T10:49:33.160Z,63.117422679478736
2023-03-10T10:52:30.731Z,63.30004234440867
2023-03-10T10:55:31.238Z,63.302556894720375
2023-03-10T10:58:30.852Z,63.468025758215994
2023-03-10T11:01:27.483Z,63.61276731150542
2023-03-10T11:04:28.873Z,63.02847009297123
2023-03-10T11:07:27.489Z,63.56835651677834
2023-03-10T11:10:27.012Z,63.319063979441225
2023-03-10T11:13:31.561Z,63.34428757219006
2023-03-10T11:16:35.119Z,63.574136686128604
2023-03-10T11:19:39.615Z,62.39836539714554
2023-03-10T11:22:42.182Z,63.073429331358454
2023-03-10T11:25:46.719Z,60.999365064133244
2023-03-10T11:28:53.268Z,61.872577182628895
2023-03-10T11:31:58.795Z,62.7943887501171
2023-03-10T11:35:07.361Z,62.84683421392944
2023-03-10T11:38:12.865Z,62.60283127333474
2023-03-10T11:41:14.465Z,62.94548766817235
2023-03-10T11:44:22.940Z,63.14888694009125
2023-03-10T11:47:29.500Z,62.25568909269871
2023-03-10T11:50:33.017Z,61.08898300883206
2023-03-10T11:53:37.592Z,61.28380465555119
2023-03-10T11:56:35.116Z,60.69955683795225
2023-03-10T11:59:36.662Z,60.465423935995226
2023-03-10T12:02:41.172Z,60.11302336782369
2023-03-10T12:05:43.984Z,60.08440065872437
2023-03-10T12:08:40.294Z,58.34792742088857
2023-03-10T12:11:37.849Z,58.358759020867915
2023-03-10T12:14:34.380Z,56.732152148169384
2023-03-10T12:17:30.960Z,56.408375277577626
2023-03-10T12:20:37.514Z,57.04703933751891
2023-03-10T12:23:41.065Z,56.829600771670485
2023-03-10T12:26:46.548Z,56.22174663192417
2023-03-10T12:29:52.132Z,54.713689488139615
2023-03-10T12:32:57.755Z,53.60446783555528
2023-03-10T12:35:56.259Z,51.78826783570328
2023-03-10T12:39:01.766Z,53.32924612666842
2023-03-10T12:42:17.291Z,53.170300291465345
2023-03-10T12:45:23.796Z,54.28461837905611
2023-03-10T12:48:26.289Z,52.536058863700724
2023-03-10T12:51:25.945Z,51.907658757318856
2023-03-10T12:54:37.382Z,52.18968775698184
2023-03-10T12:57:39.957Z,51.12951010004198
2023-03-10T13:00:42.522Z,49.802689308670864
2023-03-10T13:03:46.098Z,48.659564421289346
2023-03-10T13:06:48.611Z,46.98711837721799
2023-03-10T13:09:50.111Z,46.6393232516785
2023-03-10T13:12:50.688Z,46.08328077414637
2023-03-10T13:15:56.179Z,47.1666184097435
2023-03-10T13:18:53.788Z,47.48998883127002
2023-03-10T13:21:55.287Z,45.491334242273986
2023-03-10T13:24:58.882Z,45.42309399063439
2023-03-10T13:27:57.579Z,44.71707849256255
2023-03-10T13:30:59.962Z,43.668674024352654
2023-03-10T13:34:03.499Z,44.23881349181921
2023-03-10T13:37:03.061Z,43.395846247993845
2023-03-10T13:40:06.565Z,43.135471539839116
2023-03-10T13:43:08.111Z,43.41680483008743
2023-03-10T13:46:09.965Z,41.488827128983964
2023-03-10T13:49:07.232Z,41.2757500233147
2023-03-10T13:52:05.802Z,41.27668051121257
2023-03-10T13:55:05.313Z,42.166881653185655
2023-03-10T13:58:05.888Z,43.357326321655094
2023-03-10T14:01:02.483Z,42.56465818552452
2023-03-10T14:03:59.024Z,44.53585607015098
2023-03-10T14:07:00.541Z,46.65291868595238
2023-03-10T14:10:07.060Z,48.433317669624
2023-03-10T14:13:15.590Z,49.1073096137619
2023-03-10T14:16:11.168Z,49.5675565665218
2023-03-10T14:19:08.750Z,50.32741959503528
2023-03-10T14:22:10.304Z,50.061505396524396
2023-03-10T14:25:07.827Z,48.73557816647225
2023-03-10T14:28:10.370Z,47.582215430922176
2023-03-10T14:31:07.132Z,47.83593951149383
2023-03-10T14:34:02.476Z,47.391693855792056
2023-03-10T14:36:58.047Z,49.54236039052307
2023-03-10T14:39:53.595Z,51.94938363608181
2023-03-10T14:42:52.203Z,53.50910207260445
2023-03-10T14:45:55.824Z,53.064481109094054
2023-03-10T14:48:52.294Z,52.42366954829778
2023-03-10T14:51:50.841Z,52.92036743654285
2023-03-10T14:54:48.400Z,53.803351459444215
2023-03-10T14:57:45.929Z,54.34888179569424
2023-03-10T15:00:46.488Z,55.21372059972587
2023-03-10T15:03:43.062Z,55.57053991298677
2023-03-10T15:06:38.592Z,56.10843210846526
2023-03-10T15:09:35.153Z,56.357903527104064
2023-03-10T15:12:32.713Z,56.730700828732886
2023-03-10T15:15:32.284Z,57.05670594753774
2023-03-10T15:18:27.854Z,57.29571587107573
2023-03-10T15:21:23.401Z,57.817205650639494
2023-03-10T15:24:19.953Z,58.4586092374747
2023-03-10T15:27:15.529Z,59.366544225144764
2023-03-10T15:30:16.077Z,60.42288993682285
2023-03-10T15:33:12.634Z,61.11865088942291
2023-03-10T15:36:10.256Z,60.64540390301916
2023-03-10T15:39:05.724Z,60.55481948601287
2023-03-10T15:42:05.311Z,60.46394281790119
2023-03-10T15:45:04.894Z,61.18336378072212
2023-03-10T15:48:00.470Z,61.871197493494215
2023-03-10T15:50:57.007Z,62.40934543033188
2023-03-10T15:53:52.490Z,62.638733126317064
2023-03-10T15:56:48.118Z,62.09837446340123
2023-03-10T15:59:43.667Z,62.55133694086292
2023-03-10T16:02:41.231Z,63.05180210488577
2023-03-10T16:05:38.748Z,63.81330422646862
2023-03-10T16:08:38.320Z,64.3967610270155
2023-03-10T16:11:34.881Z,64.77234584494447
2023-03-10T16:14:30.474Z,65.48100299663257
2023-03-10T16:17:28.017Z,66.4565212707169
2023-03-10T16:20:23.563Z,66.90154884277611
2023-03-10T16:23:19.115Z,67.79656162501283
2023-03-10T16:26:16.712Z,67.96179808175731
2023-03-10T16:29:14.212Z,67.60535966982845
2023-03-10T16:32:11.899Z,68.80953506887526
2023-03-10T16:35:08.382Z,69.37269883169019
2023-03-10T16:38:03.925Z,69.04441952472375
2023-03-10T16:41:00.492Z,70.02372385597958
2023-03-10T16:44:03.033Z,69.94605638108703
2023-03-10T16:47:01.605Z,69.58791682323584
2023-03-10T16:49:57.073Z,70.35950251994302
2023-03-10T16:52:56.830Z,70.1283194114552
2023-03-10T16:55:57.236Z,70.67986167252549
2023-03-10T16:58:52.772Z,70.83942983668767
2023-03-10T17:01:49.344Z,71.35497953320846
2023-03-10T17:04:45.973Z,72.26442529322571
2023-03-10T17:07:54.772Z,72.02312309419071
2023-03-10T17:10:44.297Z,72.70137899956339
2023-03-10T17:13:39.534Z,72.9420095506451
2023-03-10T17:16:45.256Z,72.29579768503902
2023-03-10T17:19:43.671Z,71.96773572867676
2023-03-10T17:22:39.214Z,71.72543975377238
2023-03-10T17:25:35.778Z,72.07765365181064
2023-03-10T17:28:32.319Z,72.90429087538226
2023-03-10T17:31:28.961Z,74.02982849680907
2023-03-10T17:34:26.455Z,75.40598503557909
2023-03-10T17:37:22.050Z,75.7675532409667
2023-03-10T17:40:21.654Z,76.1547393011678
2023-03-10T17:43:32.920Z,76.32796417029691
2023-03-10T17:46:23.689Z,76.87352576677692
2023-03-10T17:49:19.263Z,77.77047619169524
2023-03-10T17:52:15.758Z,77.7432036275869
2023-03-10T17:55:11.347Z,78.00619615183031
2023-03-10T17:58:06.909Z,78.21347885847032
2023-03-10T18:01:08.438Z,78.17571539664488
2023-03-10T18:04:05.058Z,78.6608887547004
2023-03-10T18:07:01.546Z,78.52099221278083
2023-03-10T18:13:02.618Z,78.84459249952522
2023-03-10T18:15:58.291Z,78.57607137804229
2023-03-10T18:18:55.808Z,78.67545682489707
2023-03-10T18:21:52.385Z,79.46705198703678
2023-03-10T18:24:47.936Z,79.14996629421677
2023-03-10T18:30:50.052Z,77.68748975118872
2023-03-10T18:33:45.539Z,76.97449587986601
2023-03-10T18:36:45.147Z,77.07227429433156
2023-03-10T18:39:41.699Z,76.49556386477394
2023-03-10T18:42:37.224Z,75.5655294458235
2023-03-10T18:45:32.752Z,75.81832500092109
2023-03-10T18:48:29.378Z,76.39277289373928
2023-03-10T18:51:25.929Z,76.86059672163299
2023-03-10T18:54:21.463Z,77.14417933202509
2023-03-10T18:57:17.032Z,77.63069305256514
2023-03-10T19:00:14.600Z,77.98802861504781
2023-03-10T19:03:13.308Z,77.17886591032865
2023-03-10T19:06:09.774Z,77.64187935147194
2023-03-10T19:09:08.261Z,77.33082372805292
2023-03-10T19:12:07.854Z,77.9712198057079
2023-03-10T19:15:08.337Z,77.7182166234067
2023-03-10T19:18:03.929Z,78.36561804703533
2023-03-10T19:20:59.498Z,78.17070348179232
2023-03-10T19:23:55.032Z,78.70703738088966
2023-03-10T19:26:50.584Z,79.60376414462702
2023-03-10T19:32:51.763Z,78.72937368577703
2023-03-10T19:35:48.256Z,78.8484790124024
2023-03-10T19:38:44.822Z,79.89718217028815
2023-03-10T19:41:43.399Z,79.78407755497973
2023-03-10T19:44:38.903Z,79.25419794429497
2023-03-10T19:47:34.555Z,80.39389625171056
2023-03-10T19:50:30.086Z,80.59970914531095
2023-03-10T19:53:26.566Z,80.55806002632316
2023-03-10T19:56:26.158Z,79.22948240879789
2023-03-10T19:59:24.729Z,78.9499273496695
2023-03-10T20:02:21.255Z,78.47531420653876
2023-03-10T20:05:16.845Z,77.45047477174802
2023-03-10T20:08:13.432Z,77.20947396278744
2023-03-10T20:11:12.939Z,77.89311406958147
2023-03-10T20:14:09.492Z,77.9352887577132
2023-03-10T20:17:06.153Z,78.1301444230857
2023-03-10T20:20:09.628Z,78.43411736333748
2023-03-10T20:23:05.166Z,78.8705366301928
2023-03-10T20:26:01.811Z,78.87273035229667
2023-03-10T20:28:57.259Z,78.83345898558154
2023-03-10T20:31:53.844Z,78.80064374286664
2023-03-10T20:34:53.456Z,78.74874970345623
2023-03-10T20:37:49.003Z,78.72661547742298
2023-03-10T20:40:45.497Z,78.1215458323144
2023-03-10T20:43:43.068Z,78.62926612881775
2023-03-10T20:46:40.647Z,77.552705791487
2023-03-10T20:49:37.140Z,78.58500804157036
2023-03-10T20:52:33.769Z,77.79639920869558
2023-03-10T20:55:30.279Z,77.07842439192495
2023-03-10T20:58:27.866Z,76.9670049863863
2023-03-10T21:01:23.541Z,76.60950877876004
2023-03-10T21:04:20.101Z,75.91473725473371
2023-03-10T21:07:15.541Z,76.0328478544357
2023-03-10T21:10:13.100Z,76.75104086323327
2023-03-10T21:13:08.692Z,77.10256315105228
2023-03-10T21:19:09.760Z,77.77157920009107
2023-03-10T21:22:06.378Z,77.25717914637124
2023-03-10T21:25:03.883Z,77.44917132782263
2023-03-10T21:27:59.457Z,78.99736075883311
2023-03-10T21:30:56.184Z,78.77157874785641
2023-03-10T21:33:58.508Z,79.78283164179389
2023-03-10T21:36:55.109Z,80.37635580963737
2023-03-10T21:39:50.638Z,81.42168464198056
2023-03-10T21:42:48.216Z,82.41264324530297
2023-03-10T21:45:45.772Z,82.21783644192385
2023-03-10T21:48:44.405Z,81.98317263312734
2023-03-10T21:51:41.907Z,81.91606627712919
2023-03-10T21:54:37.521Z,81.63137141633385
2023-03-10T21:57:33.007Z,81.98502103803185
2023-03-10T22:00:29.554Z,82.60532701531643
2023-03-10T22:03:25.143Z,82.556996393417
2023-03-10T22:06:21.689Z,82.9979429536287
2023-03-10T22:09:17.268Z,82.14115468872106
2023-03-10T22:12:12.821Z,82.82261290430225
2023-03-10T22:15:12.377Z,83.06904613685037
2023-03-10T22:18:08.210Z,81.85166424490315
2023-03-10T22:21:03.457Z,82.2678169581854
2023-03-10T22:24:00.093Z,82.3677268544118
2023-03-10T22:26:55.660Z,81.80184445936902
2023-03-10T22:29:51.164Z,82.78368488059321
2023-03-10T22:32:46.798Z,82.1495900230098
2023-03-10T22:35:45.367Z,81.04969292529127
2023-03-10T22:38:40.841Z,81.39789838117731
2023-03-10T22:41:40.380Z,80.06074746702562
2023-03-10T22:44:36.963Z,79.80807840489197
2023-03-10T22:47:32.475Z,81.27238406648439
2023-03-10T22:50:29.017Z,83.00817157730873
2023-03-10T22:53:24.604Z,83.05757172604287
2023-03-10T22:56:21.203Z,84.35829845426764
2023-03-10T22:59:16.719Z,85.36996735813001
2023-03-10T23:02:12.301Z,85.77296383795805
2023-03-10T23:05:07.866Z,85.59878319892354
2023-03-10T23:08:05.430Z,85.77522823895089
2023-03-10T23:11:01.980Z,86.04065141115908
2023-03-10T23:14:01.537Z,85.89464427025653
2023-03-10T23:16:57.054Z,87.19467868168276
2023-03-10T23:19:55.714Z,87.94972943427076
2023-03-10T23:22:51.207Z,88.16358353213414
2023-03-10T23:25:50.838Z,88.09580658188749
2023-03-10T23:28:48.302Z,88.29589106394911
2023-03-10T23:31:46.874Z,87.62097345012977
2023-03-10T23:37:48.975Z,85.54072258557508
2023-03-10T23:40:46.494Z,84.6698209264227
2023-03-10T23:43:43.049Z,83.88384617473343
2023-03-10T23:46:39.582Z,83.14896097823267
2023-03-10T23:49:35.207Z,83.01330812022138
2023-03-10T23:52:30.717Z,82.21030306413599
2023-03-10T23:55:27.325Z,81.00598479058274
2023-03-10T23:58:22.894Z,81.93032851634634
